sensor_id;sensor_type;location;lat;lon;timestamp;temperature;humidity
54192;DHT22;40101;53.002;6.488;2022-08-19T00:01:17;15.70;99.90
54192;DHT22;40101;53.002;6.488;2022-08-19T00:03:43;15.70;99.90
54192;DHT22;40101;53.002;6.488;2022-08-19T00:06:08;15.60;99.90
54192;DHT22;40101;53.002;6.488;2022-08-19T00:08:35;15.50;99.90
54192;DHT22;40101;53.002;6.488;2022-08-19T00:11:01;15.60;99.90
54192;DHT22;40101;53.002;6.488;2022-08-19T00:13:27;15.50;99.90
54192;DHT22;40101;53.002;6.488;2022-08-19T00:15:55;15.40;99.90
54192;DHT22;40101;53.002;6.488;2022-08-19T00:18:21;15.40;99.90
54192;DHT22;40101;53.002;6.488;2022-08-19T00:20:46;15.40;99.90
54192;DHT22;40101;53.002;6.488;2022-08-19T00:23:12;15.40;99.90
54192;DHT22;40101;53.002;6.488;2022-08-19T00:25:38;15.40;99.90
54192;DHT22;40101;53.002;6.488;2022-08-19T00:28:04;15.30;99.90
54192;DHT22;40101;53.002;6.488;2022-08-19T00:30:30;15.30;99.90
54192;DHT22;40101;53.002;6.488;2022-08-19T00:32:56;15.30;99.90
54192;DHT22;40101;53.002;6.488;2022-08-19T00:35:22;15.30;99.90
54192;DHT22;40101;53.002;6.488;2022-08-19T00:37:49;15.30;99.90
54192;DHT22;40101;53.002;6.488;2022-08-19T00:40:17;15.20;99.90
54192;DHT22;40101;53.002;6.488;2022-08-19T00:42:45;15.10;99.90
54192;DHT22;40101;53.002;6.488;2022-08-19T00:45:23;15.20;99.90
54192;DHT22;40101;53.002;6.488;2022-08-19T00:47:49;15.20;99.90
54192;DHT22;40101;53.002;6.488;2022-08-19T00:50:17;15.10;99.90
54192;DHT22;40101;53.002;6.488;2022-08-19T00:52:46;15.10;99.90
54192;DHT22;40101;53.002;6.488;2022-08-19T00:55:18;15.00;99.90
54192;DHT22;40101;53.002;6.488;2022-08-19T00:57:51;15.00;99.90
54192;DHT22;40101;53.002;6.488;2022-08-19T01:00:20;14.90;99.90
54192;DHT22;40101;53.002;6.488;2022-08-19T01:02:47;14.90;99.90
54192;DHT22;40101;53.002;6.488;2022-08-19T01:05:16;14.90;99.90
54192;DHT22;40101;53.002;6.488;2022-08-19T01:07:44;14.80;99.90
54192;DHT22;40101;53.002;6.488;2022-08-19T01:10:16;14.80;99.90
54192;DHT22;40101;53.002;6.488;2022-08-19T01:12:45;14.80;99.90
54192;DHT22;40101;53.002;6.488;2022-08-19T01:15:12;14.80;99.90
54192;DHT22;40101;53.002;6.488;2022-08-19T01:17:40;14.70;99.90
54192;DHT22;40101;53.002;6.488;2022-08-19T01:20:13;14.70;99.90
54192;DHT22;40101;53.002;6.488;2022-08-19T01:22:48;14.70;99.90
54192;DHT22;40101;53.002;6.488;2022-08-19T01:25:18;14.70;99.90
54192;DHT22;40101;53.002;6.488;2022-08-19T01:27:46;14.70;99.90
54192;DHT22;40101;53.002;6.488;2022-08-19T01:30:22;14.60;99.90
54192;DHT22;40101;53.002;6.488;2022-08-19T01:32:49;14.60;99.90
54192;DHT22;40101;53.002;6.488;2022-08-19T01:35:16;14.60;99.90
54192;DHT22;40101;53.002;6.488;2022-08-19T01:37:55;14.50;99.90
54192;DHT22;40101;53.002;6.488;2022-08-19T01:40:24;14.50;99.90
54192;DHT22;40101;53.002;6.488;2022-08-19T01:42:51;14.50;99.90
54192;DHT22;40101;53.002;6.488;2022-08-19T01:45:21;14.50;99.90
54192;DHT22;40101;53.002;6.488;2022-08-19T01:47:48;14.50;99.90
54192;DHT22;40101;53.002;6.488;2022-08-19T01:50:14;14.50;99.90
54192;DHT22;40101;53.002;6.488;2022-08-19T01:52:42;14.50;99.90
54192;DHT22;40101;53.002;6.488;2022-08-19T01:55:11;14.60;99.90
54192;DHT22;40101;53.002;6.488;2022-08-19T01:57:39;14.50;99.90
54192;DHT22;40101;53.002;6.488;2022-08-19T02:00:11;14.50;99.90
54192;DHT22;40101;53.002;6.488;2022-08-19T02:02:39;14.50;99.90
54192;DHT22;40101;53.002;6.488;2022-08-19T02:05:05;14.60;99.90
54192;DHT22;40101;53.002;6.488;2022-08-19T02:07:34;14.60;99.90
54192;DHT22;40101;53.002;6.488;2022-08-19T02:10:08;14.60;99.90
54192;DHT22;40101;53.002;6.488;2022-08-19T02:12:34;14.70;99.90
54192;DHT22;40101;53.002;6.488;2022-08-19T02:15:01;14.70;99.90
54192;DHT22;40101;53.002;6.488;2022-08-19T02:17:28;14.70;99.90
54192;DHT22;40101;53.002;6.488;2022-08-19T02:19:55;14.70;99.90
54192;DHT22;40101;53.002;6.488;2022-08-19T02:22:22;14.70;99.90
54192;DHT22;40101;53.002;6.488;2022-08-19T02:24:48;14.70;99.90
54192;DHT22;40101;53.002;6.488;2022-08-19T02:27:14;14.70;99.90
54192;DHT22;40101;53.002;6.488;2022-08-19T02:29:40;14.80;99.90
54192;DHT22;40101;53.002;6.488;2022-08-19T02:32:07;14.70;99.90
54192;DHT22;40101;53.002;6.488;2022-08-19T02:34:33;14.70;99.90
54192;DHT22;40101;53.002;6.488;2022-08-19T02:36:59;14.70;99.90
54192;DHT22;40101;53.002;6.488;2022-08-19T02:39:24;14.70;99.90
54192;DHT22;40101;53.002;6.488;2022-08-19T02:41:51;14.70;99.90
54192;DHT22;40101;53.002;6.488;2022-08-19T02:44:17;14.70;99.90
54192;DHT22;40101;53.002;6.488;2022-08-19T02:46:45;14.70;99.90
54192;DHT22;40101;53.002;6.488;2022-08-19T02:49:11;14.70;99.90
54192;DHT22;40101;53.002;6.488;2022-08-19T02:51:40;14.80;99.90
54192;DHT22;40101;53.002;6.488;2022-08-19T02:54:07;14.80;99.90
54192;DHT22;40101;53.002;6.488;2022-08-19T02:56:35;14.80;99.90
54192;DHT22;40101;53.002;6.488;2022-08-19T02:59:01;14.80;99.90
54192;DHT22;40101;53.002;6.488;2022-08-19T03:01:31;14.80;99.90
54192;DHT22;40101;53.002;6.488;2022-08-19T03:04:01;14.80;99.90
54192;DHT22;40101;53.002;6.488;2022-08-19T03:06:28;14.80;99.90
54192;DHT22;40101;53.002;6.488;2022-08-19T03:08:54;14.70;99.90
54192;DHT22;40101;53.002;6.488;2022-08-19T03:11:26;14.70;99.90
54192;DHT22;40101;53.002;6.488;2022-08-19T03:13:52;14.60;99.90
54192;DHT22;40101;53.002;6.488;2022-08-19T03:16:24;14.50;99.90
54192;DHT22;40101;53.002;6.488;2022-08-19T03:18:50;14.50;99.90
54192;DHT22;40101;53.002;6.488;2022-08-19T03:21:21;14.50;99.90
54192;DHT22;40101;53.002;6.488;2022-08-19T03:23:47;14.50;99.90
54192;DHT22;40101;53.002;6.488;2022-08-19T03:26:13;14.50;99.90
54192;DHT22;40101;53.002;6.488;2022-08-19T03:28:41;14.40;99.90
54192;DHT22;40101;53.002;6.488;2022-08-19T03:31:12;14.40;99.90
54192;DHT22;40101;53.002;6.488;2022-08-19T03:33:39;14.40;99.90
54192;DHT22;40101;53.002;6.488;2022-08-19T03:36:09;14.30;99.90
54192;DHT22;40101;53.002;6.488;2022-08-19T03:38:37;14.30;99.90
54192;DHT22;40101;53.002;6.488;2022-08-19T03:41:09;14.30;99.90
54192;DHT22;40101;53.002;6.488;2022-08-19T03:43:36;14.20;99.90
54192;DHT22;40101;53.002;6.488;2022-08-19T03:46:04;14.20;99.90
54192;DHT22;40101;53.002;6.488;2022-08-19T03:48:31;14.20;99.90
54192;DHT22;40101;53.002;6.488;2022-08-19T03:50:58;14.20;99.90
54192;DHT22;40101;53.002;6.488;2022-08-19T03:53:25;14.20;99.90
54192;DHT22;40101;53.002;6.488;2022-08-19T03:55:51;14.30;99.90
54192;DHT22;40101;53.002;6.488;2022-08-19T03:58:19;14.30;99.90
54192;DHT22;40101;53.002;6.488;2022-08-19T04:00:45;14.30;99.90
54192;DHT22;40101;53.002;6.488;2022-08-19T04:03:11;14.20;99.90
54192;DHT22;40101;53.002;6.488;2022-08-19T04:05:36;14.20;99.90
54192;DHT22;40101;53.002;6.488;2022-08-19T04:08:03;14.20;99.90
54192;DHT22;40101;53.002;6.488;2022-08-19T04:10:35;14.30;99.90
54192;DHT22;40101;53.002;6.488;2022-08-19T04:13:00;14.20;99.90
54192;DHT22;40101;53.002;6.488;2022-08-19T04:15:26;14.10;99.90
54192;DHT22;40101;53.002;6.488;2022-08-19T04:17:54;14.10;99.90
54192;DHT22;40101;53.002;6.488;2022-08-19T04:20:20;14.20;99.90
54192;DHT22;40101;53.002;6.488;2022-08-19T04:22:45;14.10;99.90
54192;DHT22;40101;53.002;6.488;2022-08-19T04:25:11;14.20;99.90
54192;DHT22;40101;53.002;6.488;2022-08-19T04:27:37;14.20;99.90
54192;DHT22;40101;53.002;6.488;2022-08-19T04:30:03;14.20;99.90
54192;DHT22;40101;53.002;6.488;2022-08-19T04:32:29;14.20;99.90
54192;DHT22;40101;53.002;6.488;2022-08-19T04:34:57;14.20;99.90
54192;DHT22;40101;53.002;6.488;2022-08-19T04:37:24;14.20;99.90
54192;DHT22;40101;53.002;6.488;2022-08-19T04:39:52;14.20;99.90
54192;DHT22;40101;53.002;6.488;2022-08-19T04:42:36;14.20;99.90
54192;DHT22;40101;53.002;6.488;2022-08-19T04:45:10;14.10;99.90
54192;DHT22;40101;53.002;6.488;2022-08-19T04:47:40;14.20;99.90
54192;DHT22;40101;53.002;6.488;2022-08-19T04:50:07;14.10;99.90
54192;DHT22;40101;53.002;6.488;2022-08-19T04:52:33;14.20;99.90
54192;DHT22;40101;53.002;6.488;2022-08-19T04:54:59;14.30;99.90
54192;DHT22;40101;53.002;6.488;2022-08-19T04:57:25;14.30;99.90
54192;DHT22;40101;53.002;6.488;2022-08-19T04:59:55;14.20;99.90
54192;DHT22;40101;53.002;6.488;2022-08-19T05:02:21;14.20;99.90
54192;DHT22;40101;53.002;6.488;2022-08-19T05:04:56;14.30;99.90
54192;DHT22;40101;53.002;6.488;2022-08-19T05:07:22;14.40;99.90
54192;DHT22;40101;53.002;6.488;2022-08-19T05:09:48;14.70;99.90
54192;DHT22;40101;53.002;6.488;2022-08-19T05:12:14;15.10;99.90
54192;DHT22;40101;53.002;6.488;2022-08-19T05:14:39;15.40;99.90
54192;DHT22;40101;53.002;6.488;2022-08-19T05:17:05;15.70;99.90
54192;DHT22;40101;53.002;6.488;2022-08-19T05:19:31;15.80;99.90
54192;DHT22;40101;53.002;6.488;2022-08-19T05:22:15;16.10;99.90
54192;DHT22;40101;53.002;6.488;2022-08-19T05:25:11;16.40;99.90
54192;DHT22;40101;53.002;6.488;2022-08-19T05:27:38;16.90;99.90
54192;DHT22;40101;53.002;6.488;2022-08-19T05:30:04;17.20;99.90
54192;DHT22;40101;53.002;6.488;2022-08-19T05:32:30;17.30;99.90
54192;DHT22;40101;53.002;6.488;2022-08-19T05:34:56;17.20;99.90
54192;DHT22;40101;53.002;6.488;2022-08-19T05:37:22;17.20;99.90
54192;DHT22;40101;53.002;6.488;2022-08-19T05:39:48;17.20;99.90
54192;DHT22;40101;53.002;6.488;2022-08-19T05:42:14;17.20;99.90
54192;DHT22;40101;53.002;6.488;2022-08-19T05:44:42;17.10;99.90
54192;DHT22;40101;53.002;6.488;2022-08-19T05:47:10;17.10;99.90
54192;DHT22;40101;53.002;6.488;2022-08-19T05:49:36;17.60;99.90
54192;DHT22;40101;53.002;6.488;2022-08-19T05:52:07;17.80;99.90
54192;DHT22;40101;53.002;6.488;2022-08-19T05:54:34;18.00;99.90
54192;DHT22;40101;53.002;6.488;2022-08-19T05:57:01;18.10;99.90
54192;DHT22;40101;53.002;6.488;2022-08-19T05:59:27;18.10;99.90
54192;DHT22;40101;53.002;6.488;2022-08-19T06:01:54;18.50;99.90
54192;DHT22;40101;53.002;6.488;2022-08-19T06:04:21;19.50;99.90
54192;DHT22;40101;53.002;6.488;2022-08-19T06:06:49;19.70;99.90
54192;DHT22;40101;53.002;6.488;2022-08-19T06:09:17;19.60;99.90
54192;DHT22;40101;53.002;6.488;2022-08-19T06:11:46;19.60;99.90
54192;DHT22;40101;53.002;6.488;2022-08-19T06:14:18;19.80;99.90
54192;DHT22;40101;53.002;6.488;2022-08-19T06:16:44;19.70;99.90
54192;DHT22;40101;53.002;6.488;2022-08-19T06:19:14;20.10;99.90
54192;DHT22;40101;53.002;6.488;2022-08-19T06:21:43;20.50;99.90
54192;DHT22;40101;53.002;6.488;2022-08-19T06:24:11;20.50;99.90
54192;DHT22;40101;53.002;6.488;2022-08-19T06:26:39;20.10;99.90
54192;DHT22;40101;53.002;6.488;2022-08-19T06:29:06;19.90;99.90
54192;DHT22;40101;53.002;6.488;2022-08-19T06:31:34;19.90;99.90
54192;DHT22;40101;53.002;6.488;2022-08-19T06:34:02;19.90;99.90
54192;DHT22;40101;53.002;6.488;2022-08-19T06:36:40;19.70;99.90
54192;DHT22;40101;53.002;6.488;2022-08-19T06:39:11;19.50;99.90
54192;DHT22;40101;53.002;6.488;2022-08-19T06:41:40;19.50;99.90
54192;DHT22;40101;53.002;6.488;2022-08-19T06:44:06;19.30;99.90
54192;DHT22;40101;53.002;6.488;2022-08-19T06:46:32;19.30;99.90
54192;DHT22;40101;53.002;6.488;2022-08-19T06:48:59;19.30;99.90
54192;DHT22;40101;53.002;6.488;2022-08-19T06:51:26;19.30;99.90
54192;DHT22;40101;53.002;6.488;2022-08-19T06:53:53;19.30;99.90
54192;DHT22;40101;53.002;6.488;2022-08-19T06:56:23;19.30;99.90
54192;DHT22;40101;53.002;6.488;2022-08-19T06:58:50;19.40;99.90
54192;DHT22;40101;53.002;6.488;2022-08-19T07:01:18;19.60;99.90
54192;DHT22;40101;53.002;6.488;2022-08-19T07:03:44;20.10;99.90
54192;DHT22;40101;53.002;6.488;2022-08-19T07:06:15;20.30;99.90
54192;DHT22;40101;53.002;6.488;2022-08-19T07:08:44;20.40;99.90
54192;DHT22;40101;53.002;6.488;2022-08-19T07:11:12;20.50;99.90
54192;DHT22;40101;53.002;6.488;2022-08-19T07:13:39;20.60;99.90
54192;DHT22;40101;53.002;6.488;2022-08-19T07:16:06;20.60;99.90
54192;DHT22;40101;53.002;6.488;2022-08-19T07:18:33;21.00;99.90
54192;DHT22;40101;53.002;6.488;2022-08-19T07:21:14;21.20;99.90
54192;DHT22;40101;53.002;6.488;2022-08-19T07:23:41;21.60;99.90
54192;DHT22;40101;53.002;6.488;2022-08-19T07:26:10;22.80;99.90
54192;DHT22;40101;53.002;6.488;2022-08-19T07:28:36;24.20;99.90
54192;DHT22;40101;53.002;6.488;2022-08-19T07:31:07;25.40;99.90
54192;DHT22;40101;53.002;6.488;2022-08-19T07:33:34;26.40;99.90
54192;DHT22;40101;53.002;6.488;2022-08-19T07:36:04;27.10;99.90
54192;DHT22;40101;53.002;6.488;2022-08-19T07:38:31;27.70;99.90
54192;DHT22;40101;53.002;6.488;2022-08-19T07:40:57;28.30;99.90
54192;DHT22;40101;53.002;6.488;2022-08-19T07:43:23;28.90;99.90
54192;DHT22;40101;53.002;6.488;2022-08-19T07:45:52;29.30;99.90
54192;DHT22;40101;53.002;6.488;2022-08-19T07:48:25;29.60;99.90
54192;DHT22;40101;53.002;6.488;2022-08-19T07:51:00;30.00;99.90
54192;DHT22;40101;53.002;6.488;2022-08-19T07:53:31;30.30;99.90
54192;DHT22;40101;53.002;6.488;2022-08-19T07:55:59;30.60;99.90
54192;DHT22;40101;53.002;6.488;2022-08-19T07:58:31;30.90;99.90
54192;DHT22;40101;53.002;6.488;2022-08-19T08:00:57;30.90;99.60
54192;DHT22;40101;53.002;6.488;2022-08-19T08:03:24;31.00;98.60
54192;DHT22;40101;53.002;6.488;2022-08-19T08:06:09;31.10;97.80
54192;DHT22;40101;53.002;6.488;2022-08-19T08:08:53;31.40;97.00
54192;DHT22;40101;53.002;6.488;2022-08-19T08:11:43;31.70;95.90
54192;DHT22;40101;53.002;6.488;2022-08-19T08:14:17;31.80;95.10
54192;DHT22;40101;53.002;6.488;2022-08-19T08:16:43;32.10;93.90
54192;DHT22;40101;53.002;6.488;2022-08-19T08:19:12;32.20;93.50
54192;DHT22;40101;53.002;6.488;2022-08-19T08:21:40;32.30;92.50
54192;DHT22;40101;53.002;6.488;2022-08-19T08:24:06;32.40;92.40
54192;DHT22;40101;53.002;6.488;2022-08-19T08:26:32;32.60;91.80
54192;DHT22;40101;53.002;6.488;2022-08-19T08:28:58;32.60;91.30
54192;DHT22;40101;53.002;6.488;2022-08-19T08:31:24;32.60;91.40
54192;DHT22;40101;53.002;6.488;2022-08-19T08:33:49;32.50;89.20
54192;DHT22;40101;53.002;6.488;2022-08-19T08:36:16;32.20;87.70
54192;DHT22;40101;53.002;6.488;2022-08-19T08:38:43;32.20;86.10
54192;DHT22;40101;53.002;6.488;2022-08-19T08:43:47;32.00;84.70
54192;DHT22;40101;53.002;6.488;2022-08-19T08:46:35;32.00;85.90
54192;DHT22;40101;53.002;6.488;2022-08-19T08:49:14;32.10;84.40
54192;DHT22;40101;53.002;6.488;2022-08-19T08:51:48;32.30;84.60
54192;DHT22;40101;53.002;6.488;2022-08-19T08:54:20;32.40;82.30
54192;DHT22;40101;53.002;6.488;2022-08-19T08:56:47;32.40;81.50
54192;DHT22;40101;53.002;6.488;2022-08-19T09:01:50;32.30;80.60
54192;DHT22;40101;53.002;6.488;2022-08-19T09:04:15;32.50;80.80
54192;DHT22;40101;53.002;6.488;2022-08-19T09:09:33;32.60;79.30
54192;DHT22;40101;53.002;6.488;2022-08-19T09:12:28;32.70;79.50
54192;DHT22;40101;53.002;6.488;2022-08-19T09:15:08;32.60;77.50
54192;DHT22;40101;53.002;6.488;2022-08-19T09:17:34;32.60;77.00
54192;DHT22;40101;53.002;6.488;2022-08-19T09:20:04;32.60;77.00
54192;DHT22;40101;53.002;6.488;2022-08-19T09:22:34;32.70;77.00
54192;DHT22;40101;53.002;6.488;2022-08-19T09:25:02;32.60;76.50
54192;DHT22;40101;53.002;6.488;2022-08-19T09:27:28;32.70;78.20
54192;DHT22;40101;53.002;6.488;2022-08-19T09:29:55;32.90;77.30
54192;DHT22;40101;53.002;6.488;2022-08-19T09:32:22;33.00;75.50
54192;DHT22;40101;53.002;6.488;2022-08-19T09:34:48;33.10;75.50
54192;DHT22;40101;53.002;6.488;2022-08-19T09:37:14;33.10;74.50
54192;DHT22;40101;53.002;6.488;2022-08-19T09:39:40;33.00;74.70
54192;DHT22;40101;53.002;6.488;2022-08-19T09:42:07;32.80;74.60
54192;DHT22;40101;53.002;6.488;2022-08-19T09:44:40;32.60;75.00
54192;DHT22;40101;53.002;6.488;2022-08-19T09:47:07;32.80;75.30
54192;DHT22;40101;53.002;6.488;2022-08-19T09:49:33;32.80;74.90
54192;DHT22;40101;53.002;6.488;2022-08-19T09:52:01;32.80;74.60
54192;DHT22;40101;53.002;6.488;2022-08-19T09:54:27;33.00;74.70
54192;DHT22;40101;53.002;6.488;2022-08-19T09:56:55;33.10;75.40
54192;DHT22;40101;53.002;6.488;2022-08-19T09:59:23;33.20;73.40
54192;DHT22;40101;53.002;6.488;2022-08-19T10:01:49;33.40;73.50
54192;DHT22;40101;53.002;6.488;2022-08-19T10:04:16;33.60;71.70
54192;DHT22;40101;53.002;6.488;2022-08-19T10:06:42;33.30;70.40
54192;DHT22;40101;53.002;6.488;2022-08-19T10:09:09;33.30;70.50
54192;DHT22;40101;53.002;6.488;2022-08-19T10:11:39;33.20;70.40
54192;DHT22;40101;53.002;6.488;2022-08-19T10:14:05;33.20;71.20
54192;DHT22;40101;53.002;6.488;2022-08-19T10:16:32;33.40;71.70
54192;DHT22;40101;53.002;6.488;2022-08-19T10:18:58;33.70;72.00
54192;DHT22;40101;53.002;6.488;2022-08-19T10:21:30;33.80;70.00
54192;DHT22;40101;53.002;6.488;2022-08-19T10:23:59;33.70;70.00
54192;DHT22;40101;53.002;6.488;2022-08-19T10:26:27;33.70;70.50
54192;DHT22;40101;53.002;6.488;2022-08-19T10:28:53;33.80;72.60
54192;DHT22;40101;53.002;6.488;2022-08-19T10:31:21;33.70;69.80
54192;DHT22;40101;53.002;6.488;2022-08-19T10:33:48;33.30;70.90
54192;DHT22;40101;53.002;6.488;2022-08-19T10:36:20;33.10;71.80
54192;DHT22;40101;53.002;6.488;2022-08-19T10:38:51;32.90;71.10
54192;DHT22;40101;53.002;6.488;2022-08-19T10:41:21;32.70;70.80
54192;DHT22;40101;53.002;6.488;2022-08-19T10:44:02;32.20;71.80
54192;DHT22;40101;53.002;6.488;2022-08-19T10:46:29;31.80;75.00
54192;DHT22;40101;53.002;6.488;2022-08-19T10:49:01;31.20;76.90
54192;DHT22;40101;53.002;6.488;2022-08-19T10:51:28;30.60;78.50
54192;DHT22;40101;53.002;6.488;2022-08-19T10:54:20;30.10;79.70
54192;DHT22;40101;53.002;6.488;2022-08-19T10:56:46;29.80;80.50
54192;DHT22;40101;53.002;6.488;2022-08-19T10:59:23;29.70;80.70
54192;DHT22;40101;53.002;6.488;2022-08-19T11:01:51;29.80;82.00
54192;DHT22;40101;53.002;6.488;2022-08-19T11:04:18;29.90;83.60
54192;DHT22;40101;53.002;6.488;2022-08-19T11:06:46;30.10;83.30
54192;DHT22;40101;53.002;6.488;2022-08-19T11:09:18;30.20;83.60
54192;DHT22;40101;53.002;6.488;2022-08-19T11:11:43;30.30;82.50
54192;DHT22;40101;53.002;6.488;2022-08-19T11:14:12;30.30;82.50
54192;DHT22;40101;53.002;6.488;2022-08-19T11:16:40;30.50;83.70
54192;DHT22;40101;53.002;6.488;2022-08-19T11:19:09;30.60;83.20
54192;DHT22;40101;53.002;6.488;2022-08-19T11:21:42;30.60;81.10
54192;DHT22;40101;53.002;6.488;2022-08-19T11:24:16;30.40;80.30
54192;DHT22;40101;53.002;6.488;2022-08-19T11:26:42;30.40;79.50
54192;DHT22;40101;53.002;6.488;2022-08-19T11:29:10;30.30;79.70
54192;DHT22;40101;53.002;6.488;2022-08-19T11:31:45;30.30;80.40
54192;DHT22;40101;53.002;6.488;2022-08-19T11:34:20;30.30;80.30
54192;DHT22;40101;53.002;6.488;2022-08-19T11:36:47;30.10;80.50
54192;DHT22;40101;53.002;6.488;2022-08-19T11:39:17;30.00;80.40
54192;DHT22;40101;53.002;6.488;2022-08-19T11:41:45;30.10;81.50
54192;DHT22;40101;53.002;6.488;2022-08-19T11:44:12;30.40;81.10
54192;DHT22;40101;53.002;6.488;2022-08-19T11:46:40;30.40;80.30
54192;DHT22;40101;53.002;6.488;2022-08-19T11:49:07;30.30;80.10
54192;DHT22;40101;53.002;6.488;2022-08-19T11:51:36;30.30;81.40
54192;DHT22;40101;53.002;6.488;2022-08-19T11:54:04;30.20;80.90
54192;DHT22;40101;53.002;6.488;2022-08-19T11:56:30;30.00;79.30
54192;DHT22;40101;53.002;6.488;2022-08-19T11:58:57;29.80;80.70
54192;DHT22;40101;53.002;6.488;2022-08-19T12:01:25;29.70;80.70
54192;DHT22;40101;53.002;6.488;2022-08-19T12:03:52;29.50;80.10
54192;DHT22;40101;53.002;6.488;2022-08-19T12:06:21;29.60;83.80
54192;DHT22;40101;53.002;6.488;2022-08-19T12:08:51;29.70;83.80
54192;DHT22;40101;53.002;6.488;2022-08-19T12:11:16;30.00;80.00
54192;DHT22;40101;53.002;6.488;2022-08-19T12:13:45;30.00;77.30
54192;DHT22;40101;53.002;6.488;2022-08-19T12:16:22;30.00;73.40
54192;DHT22;40101;53.002;6.488;2022-08-19T12:18:49;30.10;71.50
54192;DHT22;40101;53.002;6.488;2022-08-19T12:21:21;30.00;72.00
54192;DHT22;40101;53.002;6.488;2022-08-19T12:23:49;30.10;73.20
54192;DHT22;40101;53.002;6.488;2022-08-19T12:26:16;30.30;73.30
54192;DHT22;40101;53.002;6.488;2022-08-19T12:28:42;30.50;74.20
54192;DHT22;40101;53.002;6.488;2022-08-19T12:31:08;30.70;73.60
54192;DHT22;40101;53.002;6.488;2022-08-19T12:33:38;30.80;74.60
54192;DHT22;40101;53.002;6.488;2022-08-19T12:36:06;30.70;72.40
54192;DHT22;40101;53.002;6.488;2022-08-19T12:38:33;30.60;72.40
54192;DHT22;40101;53.002;6.488;2022-08-19T12:41:00;30.40;73.60
54192;DHT22;40101;53.002;6.488;2022-08-19T12:43:26;30.40;74.00
54192;DHT22;40101;53.002;6.488;2022-08-19T12:45:52;30.30;75.20
54192;DHT22;40101;53.002;6.488;2022-08-19T12:48:17;30.20;76.00
54192;DHT22;40101;53.002;6.488;2022-08-19T12:50:45;30.10;74.00
54192;DHT22;40101;53.002;6.488;2022-08-19T12:53:12;29.70;73.00
54192;DHT22;40101;53.002;6.488;2022-08-19T12:55:38;29.40;74.40
54192;DHT22;40101;53.002;6.488;2022-08-19T12:58:04;29.30;73.50
54192;DHT22;40101;53.002;6.488;2022-08-19T13:00:30;29.30;75.50
54192;DHT22;40101;53.002;6.488;2022-08-19T13:03:00;29.50;77.00
54192;DHT22;40101;53.002;6.488;2022-08-19T13:05:30;29.50;76.60
54192;DHT22;40101;53.002;6.488;2022-08-19T13:07:57;29.70;77.30
54192;DHT22;40101;53.002;6.488;2022-08-19T13:10:34;29.60;77.90
54192;DHT22;40101;53.002;6.488;2022-08-19T13:13:01;29.60;78.90
54192;DHT22;40101;53.002;6.488;2022-08-19T13:15:28;29.50;79.00
54192;DHT22;40101;53.002;6.488;2022-08-19T13:17:58;29.60;81.50
54192;DHT22;40101;53.002;6.488;2022-08-19T13:20:24;29.80;82.00
54192;DHT22;40101;53.002;6.488;2022-08-19T13:22:50;29.80;81.60
54192;DHT22;40101;53.002;6.488;2022-08-19T13:25:17;29.70;80.60
54192;DHT22;40101;53.002;6.488;2022-08-19T13:27:45;29.70;82.00
54192;DHT22;40101;53.002;6.488;2022-08-19T13:30:13;29.60;84.40
54192;DHT22;40101;53.002;6.488;2022-08-19T13:32:58;29.30;85.70
54192;DHT22;40101;53.002;6.488;2022-08-19T13:36:00;29.00;87.30
54192;DHT22;40101;53.002;6.488;2022-08-19T13:38:27;28.60;89.40
54192;DHT22;40101;53.002;6.488;2022-08-19T13:40:54;28.30;90.70
54192;DHT22;40101;53.002;6.488;2022-08-19T13:43:22;28.00;91.50
54192;DHT22;40101;53.002;6.488;2022-08-19T13:45:52;27.80;91.90
54192;DHT22;40101;53.002;6.488;2022-08-19T13:48:21;27.50;92.90
54192;DHT22;40101;53.002;6.488;2022-08-19T13:50:47;27.30;93.00
54192;DHT22;40101;53.002;6.488;2022-08-19T13:53:14;27.00;94.00
54192;DHT22;40101;53.002;6.488;2022-08-19T13:55:41;26.80;94.60
54192;DHT22;40101;53.002;6.488;2022-08-19T13:58:09;26.70;94.80
54192;DHT22;40101;53.002;6.488;2022-08-19T14:00:41;26.50;95.40
54192;DHT22;40101;53.002;6.488;2022-08-19T14:03:07;26.50;96.10
54192;DHT22;40101;53.002;6.488;2022-08-19T14:05:33;26.50;96.40
54192;DHT22;40101;53.002;6.488;2022-08-19T14:07:59;26.60;96.90
54192;DHT22;40101;53.002;6.488;2022-08-19T14:10:26;26.80;97.20
54192;DHT22;40101;53.002;6.488;2022-08-19T14:12:55;27.00;97.50
54192;DHT22;40101;53.002;6.488;2022-08-19T14:15:24;27.10;97.70
54192;DHT22;40101;53.002;6.488;2022-08-19T14:17:50;27.00;97.10
54192;DHT22;40101;53.002;6.488;2022-08-19T14:20:16;27.10;97.60
54192;DHT22;40101;53.002;6.488;2022-08-19T14:22:43;26.90;97.60
54192;DHT22;40101;53.002;6.488;2022-08-19T14:25:12;26.80;98.10
54192;DHT22;40101;53.002;6.488;2022-08-19T14:27:39;26.70;98.70
54192;DHT22;40101;53.002;6.488;2022-08-19T14:30:09;26.60;99.10
54192;DHT22;40101;53.002;6.488;2022-08-19T14:32:35;26.50;99.60
54192;DHT22;40101;53.002;6.488;2022-08-19T14:35:01;26.50;99.90
54192;DHT22;40101;53.002;6.488;2022-08-19T14:37:28;26.40;99.90
54192;DHT22;40101;53.002;6.488;2022-08-19T14:39:54;26.30;99.90
54192;DHT22;40101;53.002;6.488;2022-08-19T14:42:20;26.30;99.90
54192;DHT22;40101;53.002;6.488;2022-08-19T14:44:45;26.30;99.90
54192;DHT22;40101;53.002;6.488;2022-08-19T14:47:11;26.30;99.90
54192;DHT22;40101;53.002;6.488;2022-08-19T14:49:37;26.30;99.90
54192;DHT22;40101;53.002;6.488;2022-08-19T14:52:04;26.20;99.90
54192;DHT22;40101;53.002;6.488;2022-08-19T14:54:30;26.20;99.90
54192;DHT22;40101;53.002;6.488;2022-08-19T14:56:56;26.10;99.90
54192;DHT22;40101;53.002;6.488;2022-08-19T14:59:22;26.10;99.90
54192;DHT22;40101;53.002;6.488;2022-08-19T15:01:48;26.10;99.90
54192;DHT22;40101;53.002;6.488;2022-08-19T15:04:13;26.20;99.90
54192;DHT22;40101;53.002;6.488;2022-08-19T15:06:40;26.40;99.90
54192;DHT22;40101;53.002;6.488;2022-08-19T15:09:08;26.40;99.90
54192;DHT22;40101;53.002;6.488;2022-08-19T15:11:34;26.60;99.90
54192;DHT22;40101;53.002;6.488;2022-08-19T15:14:00;26.80;99.90
54192;DHT22;40101;53.002;6.488;2022-08-19T15:16:27;27.00;99.90
54192;DHT22;40101;53.002;6.488;2022-08-19T15:18:55;26.80;99.90
54192;DHT22;40101;53.002;6.488;2022-08-19T15:21:23;26.80;99.90
54192;DHT22;40101;53.002;6.488;2022-08-19T15:23:50;26.60;99.90
54192;DHT22;40101;53.002;6.488;2022-08-19T15:26:17;26.40;99.90
54192;DHT22;40101;53.002;6.488;2022-08-19T15:28:44;26.20;99.90
54192;DHT22;40101;53.002;6.488;2022-08-19T15:31:10;26.10;99.90
54192;DHT22;40101;53.002;6.488;2022-08-19T15:33:38;26.00;99.90
54192;DHT22;40101;53.002;6.488;2022-08-19T15:36:10;25.70;99.90
54192;DHT22;40101;53.002;6.488;2022-08-19T15:38:38;25.70;99.90
54192;DHT22;40101;53.002;6.488;2022-08-19T15:41:05;25.60;99.90
54192;DHT22;40101;53.002;6.488;2022-08-19T15:43:50;25.60;99.90
54192;DHT22;40101;53.002;6.488;2022-08-19T15:46:20;25.40;99.90